Time;durP1;ratioP1;P1;durP2;ratioP2;P2;SDS_P1;SDS_P2;PMS_P1;PMS_P2;Temp;Humidity;BMP_temperature;BMP_pressure;BME280_temperature;BME280_humidity;BME280_pressure;Samples;Min_cycle;Max_cycle;Signal;HPM_P1;HPM_P2
2023/09/20 00:00:53;;;;;;;12.63;3.33;;;;;;;;;;4953704;29;20383;-77
2023/09/20 00:03:19;;;;;;;13.00;3.35;;;;;;;;;;4951408;29;20386;-77
2023/09/20 00:05:47;;;;;;;14.10;3.53;;;;;;;;;;4949133;29;20569;-77
2023/09/20 00:08:14;;;;;;;10.82;3.17;;;;;;;;;;4936116;29;20047;-77
2023/09/20 00:10:40;;;;;;;10.38;2.85;;;;;;;;;;4952063;29;20051;-77
2023/09/20 00:13:10;;;;;;;8.15;2.80;;;;;;;;;;4953610;29;20094;-77
2023/09/20 00:15:36;;;;;;;11.63;3.38;;;;;;;;;;4948711;29;20055;-77
2023/09/20 00:18:02;;;;;;;8.70;3.00;;;;;;;;;;4954126;29;20054;-78
2023/09/20 00:20:28;;;;;;;9.98;3.13;;;;;;;;;;4949961;29;20051;-77
2023/09/20 00:22:54;;;;;;;11.13;3.10;;;;;;;;;;4953027;29;20054;-77
2023/09/20 00:25:20;;;;;;;10.07;3.28;;;;;;;;;;4953038;29;20051;-77
2023/09/20 00:27:46;;;;;;;9.63;2.88;;;;;;;;;;4954159;28;20055;-78
2023/09/20 00:30:19;;;;;;;14.45;3.58;;;;;;;;;;4954309;29;20042;-77
2023/09/20 00:32:45;;;;;;;12.30;3.50;;;;;;;;;;4936583;29;20409;-77
2023/09/20 00:35:12;;;;;;;11.98;3.65;;;;;;;;;;4953256;29;20047;-77
2023/09/20 00:37:41;;;;;;;11.27;3.33;;;;;;;;;;4954463;29;20063;-78
2023/09/20 00:40:15;;;;;;;13.15;3.40;;;;;;;;;;4951936;29;20502;-77
2023/09/20 00:42:51;;;;;;;16.58;3.72;;;;;;;;;;4952087;29;20077;-77
2023/09/20 00:45:18;;;;;;;11.18;3.55;;;;;;;;;;4945973;29;20103;-77
2023/09/20 00:47:45;;;;;;;12.25;3.53;;;;;;;;;;4936726;29;20079;-78
2023/09/20 00:50:11;;;;;;;12.10;3.40;;;;;;;;;;4953042;29;20046;-79
2023/09/20 00:52:41;;;;;;;15.15;4.15;;;;;;;;;;4955007;29;20454;-78
2023/09/20 00:55:09;;;;;;;14.32;3.38;;;;;;;;;;4953755;29;20090;-78
2023/09/20 00:57:35;;;;;;;8.77;3.08;;;;;;;;;;4955383;29;20083;-78
2023/09/20 01:00:14;;;;;;;13.80;3.42;;;;;;;;;;4937350;29;20445;-78
2023/09/20 01:02:40;;;;;;;11.07;3.30;;;;;;;;;;4918508;29;20054;-77
2023/09/20 01:05:07;;;;;;;12.60;3.28;;;;;;;;;;4953035;29;20075;-78
2023/09/20 01:07:33;;;;;;;14.45;3.55;;;;;;;;;;4935798;29;20051;-77
2023/09/20 01:09:59;;;;;;;10.65;3.25;;;;;;;;;;4952062;28;20035;-78
2023/09/20 01:12:25;;;;;;;15.02;3.45;;;;;;;;;;4938151;29;20044;-79
2023/09/20 01:14:51;;;;;;;13.40;3.25;;;;;;;;;;4954345;29;20147;-80
2023/09/20 01:17:17;;;;;;;10.00;3.08;;;;;;;;;;4954873;29;20118;-78
2023/09/20 01:19:43;;;;;;;9.82;3.28;;;;;;;;;;4954718;29;20070;-78
2023/09/20 01:22:10;;;;;;;15.55;3.47;;;;;;;;;;4954980;29;20478;-79
2023/09/20 01:24:37;;;;;;;12.02;3.03;;;;;;;;;;4954902;29;20063;-78
2023/09/20 01:27:06;;;;;;;12.13;3.42;;;;;;;;;;4955251;29;20047;-79
2023/09/20 01:29:34;;;;;;;11.18;3.13;;;;;;;;;;4954914;29;20497;-79
2023/09/20 01:32:01;;;;;;;10.68;2.80;;;;;;;;;;4955036;29;20086;-78
2023/09/20 01:34:27;;;;;;;12.07;3.25;;;;;;;;;;4937392;29;20087;-78
2023/09/20 01:36:53;;;;;;;10.85;3.22;;;;;;;;;;4954811;29;20035;-79
2023/09/20 01:39:19;;;;;;;11.88;3.42;;;;;;;;;;4956520;28;20047;-78
2023/09/20 01:41:46;;;;;;;10.50;3.05;;;;;;;;;;4942253;29;20050;-79
2023/09/20 01:44:12;;;;;;;13.13;3.58;;;;;;;;;;4956850;29;20557;-79
2023/09/20 01:46:38;;;;;;;14.45;3.30;;;;;;;;;;4951963;29;20067;-78
2023/09/20 01:49:05;;;;;;;14.05;3.03;;;;;;;;;;4957985;28;20985;-78
2023/09/20 01:51:31;;;;;;;10.48;3.10;;;;;;;;;;4956675;29;20089;-78
2023/09/20 01:53:57;;;;;;;7.80;2.70;;;;;;;;;;4940981;29;20406;-78
2023/09/20 01:56:26;;;;;;;12.93;3.50;;;;;;;;;;4956008;29;20066;-78
2023/09/20 01:58:52;;;;;;;9.98;3.15;;;;;;;;;;4940904;29;20047;-80
2023/09/20 02:01:18;;;;;;;11.05;3.47;;;;;;;;;;4957441;29;20047;-78
2023/09/20 02:03:44;;;;;;;9.23;3.20;;;;;;;;;;4937753;29;20074;-78
2023/09/20 02:06:11;;;;;;;10.88;2.92;;;;;;;;;;4957197;29;20047;-78
2023/09/20 02:08:37;;;;;;;10.35;3.10;;;;;;;;;;4958063;29;20170;-79
2023/09/20 02:11:03;;;;;;;9.60;3.25;;;;;;;;;;4923252;29;20065;-79
2023/09/20 02:13:29;;;;;;;9.32;3.00;;;;;;;;;;4957642;29;20047;-78
2023/09/20 02:15:59;;;;;;;8.75;3.03;;;;;;;;;;4938654;29;20047;-78
2023/09/20 02:18:25;;;;;;;11.75;2.95;;;;;;;;;;4951473;29;20050;-78
2023/09/20 02:20:51;;;;;;;10.60;3.08;;;;;;;;;;4954044;29;20051;-78
2023/09/20 02:23:17;;;;;;;11.45;3.00;;;;;;;;;;4940470;29;20055;-78
2023/09/20 02:25:43;;;;;;;10.77;3.13;;;;;;;;;;4939938;29;20501;-78
2023/09/20 02:28:10;;;;;;;10.52;3.00;;;;;;;;;;4953443;29;20039;-79
2023/09/20 02:30:36;;;;;;;7.50;2.58;;;;;;;;;;4955907;29;20043;-78
2023/09/20 02:33:05;;;;;;;13.13;3.20;;;;;;;;;;4957102;29;20043;-78
2023/09/20 02:35:32;;;;;;;12.60;2.70;;;;;;;;;;4956584;29;20486;-78
2023/09/20 02:37:59;;;;;;;10.20;2.55;;;;;;;;;;4938567;29;20047;-78
2023/09/20 02:40:26;;;;;;;10.45;2.85;;;;;;;;;;4955847;29;20141;-78
2023/09/20 02:42:53;;;;;;;11.88;2.90;;;;;;;;;;4955527;29;20082;-78
2023/09/20 02:45:20;;;;;;;12.32;2.88;;;;;;;;;;4955395;29;20043;-78
2023/09/20 02:47:47;;;;;;;11.15;2.50;;;;;;;;;;4956447;29;20054;-78
2023/09/20 02:50:16;;;;;;;11.30;2.90;;;;;;;;;;4956983;28;20047;-79
2023/09/20 02:52:44;;;;;;;10.80;2.38;;;;;;;;;;4956226;29;20058;-78
2023/09/20 02:55:13;;;;;;;10.25;3.05;;;;;;;;;;4956775;29;20059;-79
2023/09/20 02:57:39;;;;;;;10.48;3.10;;;;;;;;;;4956176;29;20126;-79
2023/09/20 03:00:16;;;;;;;12.70;2.90;;;;;;;;;;4958343;29;20047;-78
2023/09/20 03:02:45;;;;;;;12.02;3.35;;;;;;;;;;4950196;29;20082;-78
2023/09/20 03:05:16;;;;;;;11.43;3.00;;;;;;;;;;4956500;29;20130;-78
2023/09/20 03:07:45;;;;;;;12.80;3.03;;;;;;;;;;4955343;29;20490;-79
2023/09/20 03:10:15;;;;;;;13.35;3.15;;;;;;;;;;4955395;28;20047;-78
2023/09/20 03:12:43;;;;;;;10.52;2.78;;;;;;;;;;4957651;28;20058;-79
2023/09/20 03:15:11;;;;;;;13.15;2.78;;;;;;;;;;4957641;29;20049;-78
2023/09/20 03:17:38;;;;;;;8.38;2.80;;;;;;;;;;4941528;29;20073;-79
2023/09/20 03:20:24;;;;;;;10.43;3.08;;;;;;;;;;4955591;29;20502;-79
2023/09/20 03:22:51;;;;;;;11.60;3.42;;;;;;;;;;4923845;29;20457;-78
2023/09/20 03:25:19;;;;;;;11.88;3.60;;;;;;;;;;4938848;29;20058;-78
2023/09/20 03:27:45;;;;;;;11.20;3.85;;;;;;;;;;4956361;29;20040;-78
2023/09/20 03:30:13;;;;;;;10.60;3.00;;;;;;;;;;4938972;29;20810;-78
2023/09/20 03:32:44;;;;;;;12.82;3.83;;;;;;;;;;4955606;29;20516;-78
2023/09/20 03:35:12;;;;;;;13.05;3.45;;;;;;;;;;4954772;29;20109;-79
2023/09/20 03:37:39;;;;;;;10.30;2.95;;;;;;;;;;4920043;29;20221;-78
2023/09/20 03:40:10;;;;;;;10.00;3.10;;;;;;;;;;4945109;29;20047;-79
2023/09/20 03:42:36;;;;;;;;;;;;;;;;;;4937696;29;20055;-78
2023/09/20 03:45:02;;;;;;;9.27;3.22;;;;;;;;;;4954809;29;19969;-78
2023/09/20 03:47:28;;;;;;;9.77;3.00;;;;;;;;;;4953138;28;20052;-79
2023/09/20 03:49:54;;;;;;;7.75;2.60;;;;;;;;;;4955219;29;20050;-79
2023/09/20 03:52:21;;;;;;;11.85;2.75;;;;;;;;;;4953374;29;20490;-79
2023/09/20 03:54:53;;;;;;;10.00;3.10;;;;;;;;;;4937674;29;20073;-79
2023/09/20 03:57:24;;;;;;;12.43;3.58;;;;;;;;;;4953978;29;20043;-79
2023/09/20 03:59:51;;;;;;;8.63;2.92;;;;;;;;;;4955991;29;20059;-78
2023/09/20 04:02:17;;;;;;;11.50;2.78;;;;;;;;;;4951952;28;21454;-78
2023/09/20 04:04:43;;;;;;;10.60;3.30;;;;;;;;;;4954829;29;20039;-78
2023/09/20 04:07:09;;;;;;;11.20;3.30;;;;;;;;;;4953708;29;20047;-78
2023/09/20 04:09:35;;;;;;;12.95;3.28;;;;;;;;;;4951282;29;20039;-80
2023/09/20 04:12:03;;;;;;;10.05;2.65;;;;;;;;;;4953444;29;20066;-78
2023/09/20 04:14:29;;;;;;;10.10;2.78;;;;;;;;;;4952722;29;20450;-78
2023/09/20 04:16:55;;;;;;;16.77;3.42;;;;;;;;;;4955150;29;20581;-79
2023/09/20 04:19:21;;;;;;;15.05;4.10;;;;;;;;;;4950944;29;20723;-79
2023/09/20 04:21:48;;;;;;;15.40;3.70;;;;;;;;;;4954183;29;20058;-78
2023/09/20 04:24:15;;;;;;;12.20;3.47;;;;;;;;;;4953726;29;20057;-79
2023/09/20 04:26:41;;;;;;;9.45;2.90;;;;;;;;;;4938286;29;20544;-78
2023/09/20 04:29:07;;;;;;;11.00;3.17;;;;;;;;;;4954223;29;20051;-78
2023/09/20 04:31:33;;;;;;;8.25;2.60;;;;;;;;;;4952167;29;20089;-78
2023/09/20 04:34:03;;;;;;;9.25;2.90;;;;;;;;;;4955422;29;20468;-78
2023/09/20 04:36:29;;;;;;;12.50;3.00;;;;;;;;;;4953002;29;20050;-78
2023/09/20 04:38:56;;;;;;;10.77;3.30;;;;;;;;;;4949670;28;20466;-78
2023/09/20 04:41:22;;;;;;;12.15;2.95;;;;;;;;;;4949446;29;20044;-78
2023/09/20 04:43:49;;;;;;;14.05;3.40;;;;;;;;;;4954223;29;20040;-78
2023/09/20 04:46:15;;;;;;;9.07;2.65;;;;;;;;;;4936664;29;20074;-78
2023/09/20 04:48:41;;;;;;;11.30;3.28;;;;;;;;;;4936225;29;20173;-79
2023/09/20 04:51:07;;;;;;;8.27;2.80;;;;;;;;;;4949134;29;20047;-78
2023/09/20 04:53:34;;;;;;;12.27;3.55;;;;;;;;;;4953002;29;20051;-78
2023/09/20 04:56:03;;;;;;;11.98;3.40;;;;;;;;;;4952879;29;20105;-78
2023/09/20 04:58:29;;;;;;;10.35;3.05;;;;;;;;;;4953864;29;20116;-77
2023/09/20 05:00:55;;;;;;;9.38;2.80;;;;;;;;;;4956924;29;20462;-79
2023/09/20 05:03:21;;;;;;;11.38;3.20;;;;;;;;;;4957757;29;20043;-79
2023/09/20 05:05:50;;;;;;;8.10;2.97;;;;;;;;;;4953943;29;20079;-79
2023/09/20 05:08:16;;;;;;;8.00;2.78;;;;;;;;;;4952912;29;20494;-76
2023/09/20 05:10:43;;;;;;;14.88;3.97;;;;;;;;;;4951388;29;20047;-76
2023/09/20 05:13:12;;;;;;;9.30;2.88;;;;;;;;;;4955705;28;20039;-76
2023/09/20 05:15:38;;;;;;;10.15;3.20;;;;;;;;;;4957440;29;20051;-77
2023/09/20 05:18:04;;;;;;;10.13;3.38;;;;;;;;;;4956294;29;20051;-77
2023/09/20 05:20:35;;;;;;;10.35;3.05;;;;;;;;;;4957551;28;20134;-77
2023/09/20 05:23:03;;;;;;;10.67;3.20;;;;;;;;;;4958577;29;20552;-78
2023/09/20 05:25:30;;;;;;;11.88;3.00;;;;;;;;;;4953366;29;20098;-77
2023/09/20 05:27:56;;;;;;;10.52;3.30;;;;;;;;;;4953344;29;20055;-78
2023/09/20 05:30:22;;;;;;;9.57;2.92;;;;;;;;;;4957544;29;20069;-78
2023/09/20 05:32:51;;;;;;;14.57;3.10;;;;;;;;;;4957805;29;20062;-78
2023/09/20 05:35:17;;;;;;;11.20;3.08;;;;;;;;;;4955926;28;20090;-79
2023/09/20 05:37:44;;;;;;;7.82;2.88;;;;;;;;;;4940404;29;20043;-77
2023/09/20 05:40:17;;;;;;;8.35;2.55;;;;;;;;;;4923953;29;20047;-77
2023/09/20 05:42:52;;;;;;;8.15;3.05;;;;;;;;;;4928226;29;20343;-78
2023/09/20 05:45:23;;;;;;;7.80;2.60;;;;;;;;;;4957609;29;20097;-78
2023/09/20 05:47:52;;;;;;;;;;;;;;;;;;4957959;29;20114;-78
2023/09/20 05:50:33;;;;;;;9.20;2.38;;;;;;;;;;4957058;28;19926;-78
2023/09/20 05:52:59;;;;;;;9.43;2.60;;;;;;;;;;4938375;29;20058;-78
2023/09/20 05:55:26;;;;;;;10.30;2.55;;;;;;;;;;4919601;29;20056;-78
2023/09/20 05:57:54;;;;;;;10.25;2.97;;;;;;;;;;4948694;28;20383;-78
2023/09/20 06:00:23;;;;;;;9.18;2.60;;;;;;;;;;4942293;29;20187;-78
2023/09/20 06:02:49;;;;;;;10.10;2.40;;;;;;;;;;4955142;29;20114;-78
2023/09/20 06:05:19;;;;;;;11.60;2.92;;;;;;;;;;4949858;29;20047;-77
2023/09/20 06:07:45;;;;;;;10.55;2.90;;;;;;;;;;4943116;29;20039;-78
2023/09/20 06:10:12;;;;;;;9.40;2.83;;;;;;;;;;4930929;29;20498;-78
2023/09/20 06:12:38;;;;;;;9.30;2.45;;;;;;;;;;4939136;29;20043;-78
2023/09/20 06:15:07;;;;;;;9.05;2.80;;;;;;;;;;4952322;29;20133;-78
2023/09/20 06:17:33;;;;;;;10.38;2.83;;;;;;;;;;4954964;29;20050;-78
2023/09/20 06:19:59;;;;;;;10.57;3.53;;;;;;;;;;4956646;29;20066;-78
2023/09/20 06:22:31;;;;;;;7.20;2.88;;;;;;;;;;4954162;29;20494;-78
2023/09/20 06:24:58;;;;;;;11.15;2.95;;;;;;;;;;4940562;29;20439;-79
2023/09/20 06:27:30;;;;;;;9.70;2.83;;;;;;;;;;4958611;29;20051;-79
2023/09/20 06:29:56;;;;;;;9.82;2.92;;;;;;;;;;4958046;29;20052;-78
2023/09/20 06:32:22;;;;;;;8.32;2.58;;;;;;;;;;4956465;29;20055;-78
2023/09/20 06:34:48;;;;;;;12.10;3.20;;;;;;;;;;4956729;29;20058;-78
2023/09/20 06:37:14;;;;;;;10.48;2.75;;;;;;;;;;4939611;29;20418;-78
2023/09/20 06:39:44;;;;;;;10.13;2.70;;;;;;;;;;4957352;28;20356;-78
2023/09/20 06:42:10;;;;;;;9.75;2.90;;;;;;;;;;4955625;29;20098;-78
2023/09/20 06:44:38;;;;;;;16.90;3.88;;;;;;;;;;4960990;28;20035;-78
2023/09/20 06:47:08;;;;;;;8.63;2.58;;;;;;;;;;4967071;28;20057;-78
2023/09/20 06:49:38;;;;;;;10.52;2.85;;;;;;;;;;4964831;28;20043;-78
2023/09/20 06:52:08;;;;;;;9.30;2.88;;;;;;;;;;4956936;28;20126;-78
2023/09/20 06:54:36;;;;;;;11.03;2.87;;;;;;;;;;4959807;28;20052;-79
2023/09/20 06:57:03;;;;;;;8.35;2.40;;;;;;;;;;4957835;29;20298;-78
2023/09/20 06:59:33;;;;;;;9.20;2.70;;;;;;;;;;4955001;29;20478;-78
2023/09/20 07:02:02;;;;;;;9.93;2.50;;;;;;;;;;4957519;29;20054;-78
2023/09/20 07:04:28;;;;;;;8.32;2.42;;;;;;;;;;4952778;29;20047;-79
2023/09/20 07:06:58;;;;;;;9.70;2.80;;;;;;;;;;4958112;29;20082;-79
2023/09/20 07:09:24;;;;;;;8.25;2.63;;;;;;;;;;4956551;28;20434;-79
2023/09/20 07:11:50;;;;;;;8.27;2.60;;;;;;;;;;4957152;29;20043;-79
2023/09/20 07:14:20;;;;;;;10.00;2.53;;;;;;;;;;4958085;29;20119;-79
2023/09/20 07:16:49;;;;;;;7.72;2.70;;;;;;;;;;4956603;28;20490;-78
2023/09/20 07:19:17;;;;;;;8.50;2.80;;;;;;;;;;4952554;29;20047;-79
2023/09/20 07:21:43;;;;;;;9.05;2.80;;;;;;;;;;4957178;29;20043;-79
2023/09/20 07:24:12;;;;;;;7.82;2.72;;;;;;;;;;4956484;28;20412;-77
2023/09/20 07:26:39;;;;;;;8.32;2.65;;;;;;;;;;4938638;29;20047;-77
2023/09/20 07:29:05;;;;;;;8.30;2.60;;;;;;;;;;4953239;28;20071;-78
2023/09/20 07:31:36;;;;;;;7.85;2.60;;;;;;;;;;4956245;29;20073;-77
2023/09/20 07:34:06;;;;;;;7.78;2.72;;;;;;;;;;4957589;28;20066;-78
2023/09/20 07:36:40;;;;;;;11.17;3.50;;;;;;;;;;4955356;28;20059;-79
2023/09/20 07:39:08;;;;;;;8.73;2.63;;;;;;;;;;4934815;29;20047;-77
2023/09/20 07:41:34;;;;;;;11.38;2.72;;;;;;;;;;4953152;29;20047;-78
2023/09/20 07:44:00;;;;;;;8.75;2.80;;;;;;;;;;4955671;28;20047;-78
2023/09/20 07:46:26;;;;;;;10.85;2.83;;;;;;;;;;4955582;28;20126;-79
2023/09/20 07:48:52;;;;;;;11.35;2.97;;;;;;;;;;4952633;29;20100;-78
2023/09/20 07:51:24;;;;;;;10.95;3.47;;;;;;;;;;4956444;29;20482;-79
2023/09/20 07:53:54;;;;;;;10.15;3.10;;;;;;;;;;4958160;28;20324;-77
2023/09/20 07:56:20;;;;;;;9.45;3.00;;;;;;;;;;4955223;28;20070;-78
2023/09/20 07:58:46;;;;;;;7.88;2.80;;;;;;;;;;4949267;29;20047;-79
2023/09/20 08:01:21;;;;;;;7.53;2.65;;;;;;;;;;4950225;29;20090;-78
2023/09/20 08:03:51;;;;;;;9.30;2.95;;;;;;;;;;4937587;29;20047;-79
2023/09/20 08:06:18;;;;;;;11.05;3.00;;;;;;;;;;4924572;29;20108;-80
2023/09/20 08:08:44;;;;;;;10.23;3.30;;;;;;;;;;4954974;29;20075;-79
2023/09/20 08:11:10;;;;;;;10.55;2.65;;;;;;;;;;4939789;29;20059;-79
2023/09/20 08:13:36;;;;;;;7.28;2.67;;;;;;;;;;4957242;29;20329;-79
2023/09/20 08:16:02;;;;;;;8.07;2.80;;;;;;;;;;4957640;29;20133;-78
2023/09/20 08:21:14;;;;;;;8.15;2.53;;;;;;;;;;4939725;29;20094;-77
2023/09/20 09:02:16;;;;;;;9.05;2.88;;;;;;;;;;4934265;29;20055;-77
2023/09/20 09:04:44;;;;;;;7.93;2.72;;;;;;;;;;4949770;29;20055;-77
2023/09/20 09:07:11;;;;;;;9.73;2.50;;;;;;;;;;4934861;29;20542;-77
2023/09/20 09:09:38;;;;;;;7.50;2.30;;;;;;;;;;4956898;29;20051;-76
2023/09/20 09:12:04;;;;;;;7.03;2.25;;;;;;;;;;4956424;28;20055;-79
2023/09/20 09:14:31;;;;;;;8.55;2.35;;;;;;;;;;4938547;29;20052;-78
2023/09/20 09:17:01;;;;;;;8.77;2.60;;;;;;;;;;4938643;29;20055;-78
2023/09/20 09:19:28;;;;;;;7.05;2.22;;;;;;;;;;4953249;29;20043;-78
2023/09/20 09:21:54;;;;;;;9.18;2.42;;;;;;;;;;4936966;28;20493;-78
2023/09/20 09:24:20;;;;;;;7.93;2.35;;;;;;;;;;4956524;28;20106;-79
2023/09/20 09:26:46;;;;;;;9.38;2.13;;;;;;;;;;4961102;28;20138;-78
2023/09/20 09:29:19;;;;;;;6.57;2.30;;;;;;;;;;4962095;28;20035;-79
2023/09/20 09:31:51;;;;;;;7.18;2.20;;;;;;;;;;4960460;28;20047;-79
2023/09/20 09:34:19;;;;;;;7.93;2.20;;;;;;;;;;4959056;28;20047;-79
2023/09/20 09:36:45;;;;;;;6.40;1.98;;;;;;;;;;4959282;28;20039;-78
2023/09/20 09:39:14;;;;;;;7.80;2.10;;;;;;;;;;4952936;28;20577;-78
2023/09/20 09:41:44;;;;;;;9.05;2.50;;;;;;;;;;4924469;29;20043;-78
2023/09/20 09:44:10;;;;;;;8.80;2.22;;;;;;;;;;4933102;28;20082;-78
2023/09/20 09:46:38;;;;;;;8.15;2.03;;;;;;;;;;4958621;28;20509;-78
2023/09/20 09:49:16;;;;;;;6.10;1.90;;;;;;;;;;4961621;28;20047;-78
2023/09/20 09:51:45;;;;;;;6.95;2.10;;;;;;;;;;4943020;28;20109;-78
2023/09/20 09:54:12;;;;;;;6.38;2.10;;;;;;;;;;4946501;28;20051;-78
2023/09/20 09:56:39;;;;;;;6.30;2.13;;;;;;;;;;4958646;28;20078;-78
2023/09/20 09:59:05;;;;;;;6.45;2.40;;;;;;;;;;4943963;28;20114;-78
2023/09/20 10:01:39;;;;;;;7.85;2.10;;;;;;;;;;4950570;28;20081;-78
2023/09/20 10:04:05;;;;;;;5.40;1.60;;;;;;;;;;4947150;28;20047;-78
2023/09/20 10:06:35;;;;;;;7.80;2.00;;;;;;;;;;4946520;28;20508;-79
2023/09/20 10:09:04;;;;;;;6.15;1.70;;;;;;;;;;4967272;28;20103;-78
2023/09/20 10:11:31;;;;;;;7.85;2.00;;;;;;;;;;4964621;28;20115;-78
2023/09/20 10:14:00;;;;;;;6.75;1.90;;;;;;;;;;4963602;28;20050;-78
2023/09/20 10:16:28;;;;;;;5.13;1.50;;;;;;;;;;4967723;28;20047;-78
2023/09/20 10:18:54;;;;;;;7.53;2.00;;;;;;;;;;4965344;28;20498;-78
2023/09/20 10:21:25;;;;;;;5.78;1.70;;;;;;;;;;4945781;28;20495;-78
2023/09/20 10:23:55;;;;;;;6.97;1.90;;;;;;;;;;4964445;28;20063;-78
2023/09/20 10:26:21;;;;;;;7.70;2.30;;;;;;;;;;4952880;28;20058;-78
2023/09/20 10:28:47;;;;;;;7.28;2.70;;;;;;;;;;4930407;28;20122;-78
2023/09/20 10:31:18;;;;;;;5.63;1.75;;;;;;;;;;4967747;28;20053;-79
2023/09/20 10:33:55;;;;;;;5.35;1.80;;;;;;;;;;4957644;28;20101;-78
2023/09/20 10:36:29;;;;;;;4.80;1.70;;;;;;;;;;4963894;28;20098;-77
2023/09/20 10:39:29;;;;;;;6.20;2.08;;;;;;;;;;4961714;28;20035;-77
2023/09/20 10:41:56;;;;;;;6.90;1.90;;;;;;;;;;4933627;28;20075;-78
2023/09/20 10:44:26;;;;;;;5.70;2.05;;;;;;;;;;4965086;28;20067;-77
2023/09/20 10:46:53;;;;;;;7.75;2.22;;;;;;;;;;4965449;28;20047;-78
2023/09/20 10:49:40;;;;;;;6.82;2.30;;;;;;;;;;4963956;28;20121;-78
2023/09/20 10:52:06;;;;;;;5.93;1.70;;;;;;;;;;4964747;28;20043;-78
2023/09/20 10:54:36;;;;;;;6.28;2.00;;;;;;;;;;4962067;28;20047;-78
2023/09/20 10:57:07;;;;;;;7.32;2.05;;;;;;;;;;4961390;28;20122;-78
2023/09/20 10:59:34;;;;;;;;;;;;;;;;;;4954647;28;20055;-79
2023/09/20 11:02:00;;;;;;;6.40;1.85;;;;;;;;;;4969597;28;19922;-78
2023/09/20 11:04:26;;;;;;;6.85;2.00;;;;;;;;;;4966720;28;20055;-78
2023/09/20 11:06:53;;;;;;;5.75;2.10;;;;;;;;;;4965904;28;20130;-79
2023/09/20 11:09:25;;;;;;;8.10;1.75;;;;;;;;;;4957846;29;20069;-78
2023/09/20 11:11:51;;;;;;;6.15;1.77;;;;;;;;;;4958260;28;20134;-79
2023/09/20 11:14:19;;;;;;;6.47;2.10;;;;;;;;;;4960489;29;20062;-78
2023/09/20 11:16:45;;;;;;;7.15;2.00;;;;;;;;;;4959578;29;20055;-79
2023/09/20 11:19:11;;;;;;;5.90;1.98;;;;;;;;;;4958077;29;20138;-79
2023/09/20 11:21:38;;;;;;;6.13;2.20;;;;;;;;;;4956889;29;20058;-79
2023/09/20 11:24:06;;;;;;;7.97;2.22;;;;;;;;;;4961033;28;20059;-79
2023/09/20 11:26:32;;;;;;;5.53;2.00;;;;;;;;;;4959241;28;20131;-78
2023/09/20 11:28:59;;;;;;;7.00;2.05;;;;;;;;;;4952171;28;20058;-78
2023/09/20 11:31:35;;;;;;;4.50;1.95;;;;;;;;;;4958252;29;20099;-78
2023/09/20 11:34:03;;;;;;;6.60;1.80;;;;;;;;;;4940481;29;20055;-80
2023/09/20 11:36:29;;;;;;;6.40;2.13;;;;;;;;;;4959547;29;20407;-78
2023/09/20 11:38:55;;;;;;;7.47;2.10;;;;;;;;;;4958166;28;20052;-79
2023/09/20 11:41:23;;;;;;;9.73;2.30;;;;;;;;;;4958018;28;20047;-78
2023/09/20 11:43:49;;;;;;;7.45;1.88;;;;;;;;;;4937981;29;20477;-78
2023/09/20 11:46:18;;;;;;;5.03;1.90;;;;;;;;;;4951759;29;20094;-78
2023/09/20 11:48:47;;;;;;;6.22;2.20;;;;;;;;;;4939470;29;20577;-77
2023/09/20 11:51:14;;;;;;;7.03;2.30;;;;;;;;;;4951167;29;20070;-77
2023/09/20 11:53:44;;;;;;;8.27;2.40;;;;;;;;;;4939347;28;20081;-78
2023/09/20 11:56:10;;;;;;;7.63;2.33;;;;;;;;;;4962234;28;20053;-78
2023/09/20 11:58:37;;;;;;;9.45;2.30;;;;;;;;;;4955572;28;20527;-79
2023/09/20 12:01:06;;;;;;;9.85;2.60;;;;;;;;;;4924871;29;20134;-78
2023/09/20 12:03:33;;;;;;;7.55;2.25;;;;;;;;;;4945804;29;20454;-78
2023/09/20 12:05:59;;;;;;;6.40;2.10;;;;;;;;;;4939029;29;20086;-80
2023/09/20 12:08:32;;;;;;;7.53;2.90;;;;;;;;;;4952971;29;20073;-79
2023/09/20 12:10:58;;;;;;;10.95;2.80;;;;;;;;;;4961929;28;20090;-79
2023/09/20 12:13:24;;;;;;;6.45;2.47;;;;;;;;;;4965091;28;20505;-79
2023/09/20 12:15:52;;;;;;;8.55;2.58;;;;;;;;;;4957624;29;20138;-79
2023/09/20 12:18:19;;;;;;;5.90;2.20;;;;;;;;;;4934244;29;20075;-79
2023/09/20 12:20:45;;;;;;;8.00;2.65;;;;;;;;;;4935409;29;20115;-79
2023/09/20 12:23:14;;;;;;;13.80;2.67;;;;;;;;;;4949030;28;20071;-78
2023/09/20 12:25:40;;;;;;;7.00;2.50;;;;;;;;;;4930900;29;20047;-78
2023/09/20 12:28:07;;;;;;;7.05;2.70;;;;;;;;;;4957089;29;20051;-79
2023/09/20 12:30:33;;;;;;;7.50;2.75;;;;;;;;;;4955014;29;20042;-78
2023/09/20 12:33:00;;;;;;;7.43;2.63;;;;;;;;;;4955042;28;20513;-78
2023/09/20 12:35:26;;;;;;;6.47;2.80;;;;;;;;;;4956226;29;20057;-78
2023/09/20 12:37:54;;;;;;;7.68;2.70;;;;;;;;;;4956605;28;20070;-78
2023/09/20 12:40:23;;;;;;;8.18;3.00;;;;;;;;;;4957284;28;20518;-78
2023/09/20 12:42:49;;;;;;;6.70;2.70;;;;;;;;;;4935414;29;20043;-79
2023/09/20 12:45:15;;;;;;;8.25;2.80;;;;;;;;;;4955673;28;20129;-78
2023/09/20 12:47:42;;;;;;;8.55;3.03;;;;;;;;;;4953127;29;20459;-79
2023/09/20 12:50:14;;;;;;;7.68;2.70;;;;;;;;;;4937685;29;20047;-79
2023/09/20 12:52:42;;;;;;;7.00;2.55;;;;;;;;;;4951360;28;20051;-78
2023/09/20 12:55:10;;;;;;;9.80;2.78;;;;;;;;;;4944981;29;20051;-79
2023/09/20 12:57:38;;;;;;;7.82;2.30;;;;;;;;;;4946098;29;20079;-78
2023/09/20 13:00:05;;;;;;;7.35;2.58;;;;;;;;;;4948453;29;20055;-78
2023/09/20 13:02:32;;;;;;;9.32;2.75;;;;;;;;;;4940982;29;20051;-78
2023/09/20 13:04:59;;;;;;;6.78;2.42;;;;;;;;;;4942591;29;20047;-78
2023/09/20 13:07:26;;;;;;;7.85;2.55;;;;;;;;;;4942810;29;20422;-78
2023/09/20 13:09:53;;;;;;;7.10;2.30;;;;;;;;;;4926265;29;20039;-79
2023/09/20 13:12:22;;;;;;;8.00;2.35;;;;;;;;;;4950343;29;20043;-78
2023/09/20 13:14:48;;;;;;;5.30;2.10;;;;;;;;;;4936972;29;20134;-78
2023/09/20 13:17:16;;;;;;;4.95;2.00;;;;;;;;;;4952414;29;20047;-78
2023/09/20 13:19:42;;;;;;;5.57;2.00;;;;;;;;;;4951501;29;20481;-78
2023/09/20 13:22:09;;;;;;;5.28;1.98;;;;;;;;;;4934404;29;20054;-78
2023/09/20 13:24:40;;;;;;;8.00;2.35;;;;;;;;;;4949586;29;20394;-78
2023/09/20 13:27:06;;;;;;;5.43;1.98;;;;;;;;;;4957790;29;20043;-79
2023/09/20 13:29:33;;;;;;;6.85;2.30;;;;;;;;;;4957471;29;20110;-81
2023/09/20 13:31:59;;;;;;;7.10;2.10;;;;;;;;;;4958372;29;20446;-80
2023/09/20 13:34:25;;;;;;;8.98;2.25;;;;;;;;;;4955794;28;20126;-80
2023/09/20 13:36:51;;;;;;;6.47;2.05;;;;;;;;;;4966184;29;20130;-81
2023/09/20 13:39:18;;;;;;;7.38;2.03;;;;;;;;;;4964205;29;20103;-80
2023/09/20 13:41:44;;;;;;;5.28;1.60;;;;;;;;;;4965954;29;20070;-80
2023/09/20 13:44:10;;;;;;;6.32;2.03;;;;;;;;;;4965841;29;20447;-80
2023/09/20 13:46:39;;;;;;;10.65;2.13;;;;;;;;;;4967649;29;20086;-81
2023/09/20 13:49:10;;;;;;;7.45;2.20;;;;;;;;;;4949394;29;20454;-80
2023/09/20 13:51:38;;;;;;;9.68;2.08;;;;;;;;;;4952505;29;20106;-69
2023/09/20 13:54:10;;;;;;;9.52;2.10;;;;;;;;;;4948834;29;20058;-77
2023/09/20 13:56:38;;;;;;;5.78;1.80;;;;;;;;;;4934702;29;20099;-79
2023/09/20 13:59:05;;;;;;;6.60;1.70;;;;;;;;;;4934158;29;20056;-79
2023/09/20 14:01:32;;;;;;;6.60;2.13;;;;;;;;;;4949912;29;20062;-79
2023/09/20 14:03:58;;;;;;;6.15;2.10;;;;;;;;;;4953120;29;20051;-79
2023/09/20 14:06:24;;;;;;;6.22;1.95;;;;;;;;;;4933972;29;20078;-79
2023/09/20 14:08:51;;;;;;;6.70;1.80;;;;;;;;;;4958466;29;20051;-79
2023/09/20 14:11:18;;;;;;;6.63;2.20;;;;;;;;;;4943525;29;20039;-80
2023/09/20 14:13:44;;;;;;;6.88;1.92;;;;;;;;;;4959995;29;20129;-80
2023/09/20 14:16:10;;;;;;;6.53;1.70;;;;;;;;;;4944054;29;20063;-80
2023/09/20 14:18:36;;;;;;;4.60;1.70;;;;;;;;;;4957916;29;20111;-80
2023/09/20 14:21:03;;;;;;;4.13;1.63;;;;;;;;;;4951086;29;20045;-80
2023/09/20 14:23:30;;;;;;;4.45;1.63;;;;;;;;;;4961403;28;20082;-80
2023/09/20 14:25:56;;;;;;;9.48;2.88;;;;;;;;;;4934219;29;20075;-80
2023/09/20 14:28:22;;;;;;;5.50;1.88;;;;;;;;;;4938342;29;20083;-80
2023/09/20 14:30:48;;;;;;;5.18;1.70;;;;;;;;;;4943624;29;20383;-80
2023/09/20 14:33:14;;;;;;;5.72;1.90;;;;;;;;;;4959670;29;20051;-79
2023/09/20 14:35:41;;;;;;;6.65;1.70;;;;;;;;;;4960810;29;20110;-80
2023/09/20 14:38:07;;;;;;;6.32;1.95;;;;;;;;;;4935468;29;20054;-80
2023/09/20 14:40:33;;;;;;;6.00;1.90;;;;;;;;;;4959907;28;20560;-80
2023/09/20 14:42:59;;;;;;;6.10;1.50;;;;;;;;;;4962018;28;20549;-79
2023/09/20 14:45:29;;;;;;;6.85;1.90;;;;;;;;;;4955848;28;20063;-80
2023/09/20 14:47:56;;;;;;;5.45;1.70;;;;;;;;;;4945882;28;20498;-80
2023/09/20 14:50:23;;;;;;;7.75;1.83;;;;;;;;;;4957408;28;20044;-80
2023/09/20 14:52:49;;;;;;;5.18;1.50;;;;;;;;;;4958050;29;20047;-80
2023/09/20 14:55:20;;;;;;;6.65;1.83;;;;;;;;;;4960181;28;20094;-80
2023/09/20 14:57:53;;;;;;;7.57;1.88;;;;;;;;;;4961770;28;20553;-79
2023/09/20 15:00:22;;;;;;;7.80;1.70;;;;;;;;;;4959084;29;20049;-79
2023/09/20 15:02:50;;;;;;;4.63;1.77;;;;;;;;;;4959074;28;20502;-80
2023/09/20 15:05:20;;;;;;;6.07;1.65;;;;;;;;;;4953192;29;20498;-80
2023/09/20 15:07:53;;;;;;;6.53;1.85;;;;;;;;;;4960986;29;20129;-79
2023/09/20 15:10:20;;;;;;;4.97;1.60;;;;;;;;;;4941698;29;20102;-80
2023/09/20 15:12:50;;;;;;;4.82;1.75;;;;;;;;;;4937897;29;20043;-80
2023/09/20 15:15:17;;;;;;;11.30;1.85;;;;;;;;;;4961617;28;20051;-81
2023/09/20 15:17:43;;;;;;;5.70;1.63;;;;;;;;;;4958612;29;20055;-80
2023/09/20 15:20:13;;;;;;;7.07;1.83;;;;;;;;;;4957209;28;20071;-80
2023/09/20 15:22:39;;;;;;;5.20;1.60;;;;;;;;;;4960876;28;20058;-80